Time;durP1;ratioP1;P1;durP2;ratioP2;P2;SDS_P1;SDS_P2;PMS_P1;PMS_P2;Temp;Humidity;BMP_temperature;BMP_pressure;BME280_temperature;BME280_humidity;BME280_pressure;Samples;Min_cycle;Max_cycle;Signal;HPM_P1;HPM_P2
2021/10/18 00:01:08;;;;;;;20.17;14.35;;;;;;;12.05;80.83;94944.61;828325;71;29728;-80
2021/10/18 00:16:15;;;;;;;17.23;13.53;;;;;;;12.01;81.04;94937.81;827430;71;32679;-77
2021/10/18 00:31:28;;;;;;;18.65;15.08;;;;;;;11.97;81.41;94940.23;833922;71;32771;-79
2021/10/18 00:46:08;;;;;;;20.62;15.32;;;;;;;11.88;81.48;94926.14;828255;71;29740;-76
2021/10/18 01:01:09;;;;;;;16.57;12.82;;;;;;;11.94;81.63;94940.01;828416;71;29747;-79
2021/10/18 01:16:18;;;;;;;17.50;12.37;;;;;;;11.94;81.69;94927.66;827453;71;32711;-79
2021/10/18 01:31:14;;;;;;;17.85;13.10;;;;;;;11.92;81.96;94922.42;827542;71;32678;-80
2021/10/18 01:46:14;;;;;;;15.68;11.85;;;;;;;11.88;81.87;94916.14;828850;71;33137;-78
2021/10/18 02:01:14;;;;;;;16.40;12.70;;;;;;;11.87;81.68;94921.94;833929;71;32783;-77
2021/10/18 02:16:08;;;;;;;14.53;12.03;;;;;;;11.91;81.77;94926.91;828284;71;29739;-77
2021/10/18 02:31:14;;;;;;;17.30;11.50;;;;;;;11.91;82.07;94926.91;827777;71;32773;-77
2021/10/18 02:46:09;;;;;;;16.10;11.30;;;;;;;11.96;82.07;94933.93;834072;71;30759;-76
2021/10/18 03:16:08;;;;;;;15.03;11.40;;;;;;;12.63;80.04;94926.59;828266;71;30196;-77
2021/10/18 03:31:10;;;;;;;16.95;12.82;;;;;;;12.56;79.79;94938.55;828076;71;30872;-77
2021/10/18 03:46:13;;;;;;;17.82;13.00;;;;;;;12.48;79.53;94944.48;835708;70;32053;-77
2021/10/18 04:01:18;;;;;;;20.43;15.55;;;;;;;12.39;79.57;94937.78;827510;71;32725;-78
2021/10/18 04:16:15;;;;;;;22.52;15.85;;;;;;;12.32;79.95;94947.87;827370;71;32718;-76
2021/10/18 04:31:14;;;;;;;21.85;16.02;;;;;;;12.21;80.22;94953.84;828708;71;32605;-75
2021/10/18 04:46:08;;;;;;;25.92;17.73;;;;;;;12.10;80.80;94951.09;834058;71;29729;-76
2021/10/18 05:01:14;;;;;;;25.43;16.77;;;;;;;12.01;81.15;94963.58;827427;71;31835;-75
2021/10/18 05:16:13;;;;;;;21.97;16.82;;;;;;;11.98;81.62;94975.19;827659;71;31801;-75
2021/10/18 05:31:14;;;;;;;29.07;18.35;;;;;;;11.97;81.64;94988.88;820177;70;32277;-74
2021/10/18 05:46:08;;;;;;;24.40;18.00;;;;;;;11.99;81.77;95001.75;828176;71;28739;-75
2021/10/18 06:01:08;;;;;;;23.73;16.55;;;;;;;12.00;82.13;95017.26;812985;71;28899;-74
2021/10/18 06:16:08;;;;;;;23.42;15.05;;;;;;;12.01;81.93;95034.59;833886;71;28644;-74
2021/10/18 06:31:09;;;;;;;21.62;15.43;;;;;;;12.11;81.55;95045.52;835015;71;28657;-77
2021/10/18 06:46:08;;;;;;;22.02;15.63;;;;;;;12.30;80.84;95059.22;828270;71;28822;-74
2021/10/18 07:01:32;;;;;;;24.65;15.80;;;;;;;12.42;80.36;95074.82;823330;71;31902;-75
2021/10/18 07:16:14;;;;;;;21.97;15.25;;;;;;;12.64;79.50;95089.27;827251;71;31750;-76
2021/10/18 07:31:14;;;;;;;19.15;15.20;;;;;;;12.89;78.56;95094.69;833497;71;32205;-76
2021/10/18 07:46:08;;;;;;;19.67;13.43;;;;;;;12.94;77.50;95082.77;828276;71;28686;-75
2021/10/18 08:01:08;;;;;;;15.75;11.33;;;;;;;13.17;76.75;95105.33;828238;71;29162;-74
2021/10/18 08:16:09;;;;;;;15.95;12.18;;;;;;;13.39;75.86;95091.02;828269;71;29802;-75
2021/10/18 08:31:15;;;;;;;19.82;14.38;;;;;;;13.75;74.06;95080.38;814625;71;32378;-74
2021/10/18 08:46:15;;;;;;;17.02;13.25;;;;;;;13.84;71.85;95086.52;823828;71;31867;-75
2021/10/18 09:16:11;;;;;;;19.77;15.30;;;;;;;16.88;73.53;95087.27;823053;71;28841;-76
2021/10/18 09:31:15;;;;;;;17.65;14.58;;;;;;;15.90;67.91;95087.95;824564;71;28680;-74
2021/10/18 11:01:33;;;;;;;20.15;14.58;;;;;;;15.16;68.58;95060.18;827509;71;31797;-74
2021/10/18 11:16:09;;;;;;;15.63;13.00;;;;;;;15.15;68.84;95041.45;828251;71;29219;-75
2021/10/18 11:31:14;;;;;;;15.55;12.90;;;;;;;15.31;68.25;95043.95;833941;71;31797;-74
2021/10/18 11:46:08;;;;;;;11.97;10.03;;;;;;;15.57;67.65;95042.75;828174;71;28634;-75
2021/10/18 12:01:15;;;;;;;12.80;10.43;;;;;;;15.81;66.86;95029.69;834065;71;29218;-75
2021/10/18 12:16:25;;;;;;;11.30;9.53;;;;;;;15.94;65.74;95021.41;827965;71;33079;-76
2021/10/18 12:31:35;;;;;;;11.45;8.88;;;;;;;15.74;65.14;95029.37;826584;71;32715;-75
2021/10/18 12:46:29;;;;;;;10.20;8.38;;;;;;;15.69;65.40;95030.23;827357;71;32756;-75
2021/10/18 13:01:15;;;;;;;8.05;7.17;;;;;;;15.69;64.67;95024.17;828193;71;28840;-75
2021/10/18 13:16:14;;;;;;;12.35;10.00;;;;;;;16.18;63.85;95020.44;833887;71;31683;-76
2021/10/18 13:31:29;;;;;;;10.25;8.80;;;;;;;16.41;62.23;95020.30;828024;71;32624;-74
2021/10/18 13:46:08;;;;;;;9.58;8.23;;;;;;;16.26;62.19;95011.47;828263;71;29703;-74
2021/10/18 14:01:08;;;;;;;9.83;8.78;;;;;;;15.89;62.75;95000.37;828172;71;29719;-75
2021/10/18 14:16:15;;;;;;;11.35;9.43;;;;;;;15.55;63.86;95005.23;828290;71;32727;-75
2021/10/18 14:31:09;;;;;;;12.10;9.48;;;;;;;15.28;64.52;94992.21;834263;71;29780;-75
2021/10/18 14:46:12;;;;;;;11.15;9.30;;;;;;;14.98;65.62;95001.15;827752;71;32033;-74
2021/10/18 15:16:08;;;;;;;19.95;13.32;;;;;;;14.43;68.63;95041.22;828816;71;29667;-74
2021/10/18 15:31:14;;;;;;;16.10;12.07;;;;;;;14.26;67.99;95060.88;827129;71;32918;-76
2021/10/18 15:46:08;;;;;;;14.10;11.55;;;;;;;14.11;68.72;95080.46;833604;71;29704;-77
2021/10/18 16:01:20;;;;;;;15.20;12.60;;;;;;;13.96;69.43;95083.39;827875;71;30286;-79
2021/10/18 16:16:15;;;;;;;17.48;13.98;;;;;;;13.86;69.59;95102.83;816694;71;32856;-79
2021/10/18 16:31:14;;;;;;;16.77;12.93;;;;;;;13.76;69.37;95112.25;834609;71;31698;-78
2021/10/18 16:47:06;;;;;;;;;;;;;;;;;;;;;
2021/10/18 17:01:43;;;;;;;15.40;13.30;;;;;;;13.72;69.06;95143.70;833296;71;33563;-79
2021/10/18 17:16:13;;;;;;;17.65;14.10;;;;;;;13.73;69.03;95148.45;827021;71;32896;-78
2021/10/18 17:31:20;;;;;;;19.02;15.50;;;;;;;13.68;69.12;95167.77;833121;71;32741;-78
2021/10/18 17:46:09;;;;;;;15.43;13.75;;;;;;;13.65;69.16;95176.82;827928;71;29793;-78
2021/10/18 18:01:20;;;;;;;18.55;15.00;;;;;;;13.57;69.79;95178.26;834742;71;32692;-77
2021/10/18 18:31:49;;;;;;;19.07;15.32;;;;;;;13.53;69.79;95207.59;833461;71;32900;-78
2021/10/18 18:46:35;;;;;;;19.48;16.57;;;;;;;13.35;69.62;95205.23;787724;75;33033;-80
2021/10/18 19:01:20;;;;;;;18.40;15.13;;;;;;;13.44;69.61;95241.72;819646;71;32849;-82
2021/10/18 19:16:09;;;;;;;19.32;15.20;;;;;;;13.08;69.69;95201.89;833649;71;30180;-80
2021/10/18 19:31:14;;;;;;;19.15;16.10;;;;;;;13.39;70.10;95276.08;827051;71;32722;-78
2021/10/18 19:46:08;;;;;;;17.77;14.90;;;;;;;13.27;70.20;95275.69;827890;71;29795;-79
2021/10/18 20:01:59;;;;;;;;;;;;;;;;;;;;;
2021/10/18 20:31:23;;;;;;;18.77;15.65;;;;;;;13.26;70.01;95334.73;826239;71;33892;-79
2021/10/18 20:46:15;;;;;;;17.02;15.28;;;;;;;13.18;69.49;95348.80;827362;71;31864;-78
2021/10/18 21:31:20;;;;;;;17.92;16.02;;;;;;;12.87;66.01;95368.65;832985;71;33217;-79
2021/10/18 22:01:13;;;;;;;20.20;16.65;;;;;;;12.75;65.30;95364.57;827568;71;30734;-79
2021/10/18 22:16:14;;;;;;;19.67;15.40;;;;;;;12.71;65.72;95361.44;827888;71;32096;-79
2021/10/18 22:31:17;;;;;;;21.10;17.42;;;;;;;12.56;66.04;95361.06;833031;71;33128;-78
2021/10/18 22:46:08;;;;;;;19.48;16.40;;;;;;;12.28;65.92;95362.09;827612;71;29717;-80
2021/10/18 23:16:20;;;;;;;18.92;15.38;;;;;;;11.79;65.80;95372.17;827182;71;32941;-78
2021/10/18 23:31:33;;;;;;;19.65;16.00;;;;;;;11.39;66.81;95360.32;833454;71;32854;-77
2021/10/18 23:46:17;;;;;;;19.98;15.85;;;;;;;11.38;67.06;95390.27;827460;71;32499;-78
